createdAt,value
2023-01-20T00:03:29.600Z,2.59
2023-01-20T00:08:30.932Z,2.61
2023-01-20T00:13:32.506Z,2.62
2023-01-20T00:18:34.835Z,2.61
2023-01-20T00:23:36.149Z,2.59
2023-01-20T00:28:37.477Z,2.59
2023-01-20T00:33:38.957Z,2.55
2023-01-20T00:38:40.486Z,2.57
2023-01-20T00:43:42.320Z,2.56
2023-01-20T00:48:43.719Z,2.52
2023-01-20T00:53:45.046Z,2.42
2023-01-20T00:58:46.420Z,2.38
2023-01-20T01:03:47.789Z,2.37
2023-01-20T01:08:49.190Z,2.41
2023-01-20T01:13:50.661Z,2.43
2023-01-20T01:18:55.126Z,2.44
2023-01-20T01:23:56.524Z,2.46
2023-01-20T01:28:59.040Z,2.47
2023-01-20T01:34:00.357Z,2.48
2023-01-20T01:39:01.699Z,2.43
2023-01-20T01:44:10.397Z,2.41
2023-01-20T01:49:20.748Z,2.41
2023-01-20T01:54:23.682Z,2.41
2023-01-20T01:59:25.024Z,2.46
2023-01-20T02:04:27.916Z,2.47
2023-01-20T02:09:29.977Z,2.49
2023-01-20T02:14:33.756Z,2.51
2023-01-20T02:19:53.629Z,2.43
2023-01-20T02:25:14.083Z,2.35
2023-01-20T02:30:37.534Z,2.36
2023-01-20T02:35:45.431Z,2.40
2023-01-20T02:40:53.381Z,2.42
2023-01-20T02:46:01.706Z,2.35
2023-01-20T02:51:07.568Z,2.39
2023-01-20T02:56:09.570Z,2.47
2023-01-20T03:01:13.588Z,2.47
2023-01-20T03:06:19.681Z,2.40
2023-01-20T03:11:21.105Z,2.31
2023-01-20T03:16:24.170Z,2.26
2023-01-20T03:21:25.700Z,2.36
2023-01-20T03:26:27.384Z,2.37
2023-01-20T03:31:30.903Z,2.37
2023-01-20T03:36:32.598Z,2.35
2023-01-20T03:41:34.668Z,2.29
2023-01-20T03:46:45.239Z,2.24
2023-01-20T03:52:04.615Z,2.15
2023-01-20T03:57:14.542Z,2.09
2023-01-20T04:02:16.012Z,2.00
2023-01-20T04:07:20.416Z,1.92
2023-01-20T04:12:21.829Z,1.85
2023-01-20T04:17:26.912Z,1.89
2023-01-20T04:22:31.702Z,1.90
2023-01-20T04:27:33.077Z,1.91
2023-01-20T04:32:34.376Z,1.87
2023-01-20T04:37:35.730Z,1.78
2023-01-20T04:42:37.385Z,1.72
2023-01-20T04:47:38.909Z,1.69
2023-01-20T04:52:40.250Z,1.72
2023-01-20T04:57:41.611Z,1.73
2023-01-20T05:02:42.931Z,1.78
2023-01-20T05:07:44.296Z,1.79
2023-01-20T05:12:45.608Z,1.82
2023-01-20T05:17:47.228Z,1.88
2023-01-20T05:22:48.556Z,1.92
2023-01-20T05:27:49.912Z,1.89
2023-01-20T05:32:52.013Z,1.86
2023-01-20T05:37:54.501Z,1.81
2023-01-20T05:42:59.227Z,1.77
2023-01-20T05:48:00.805Z,1.75
2023-01-20T05:53:02.131Z,1.78
2023-01-20T05:58:03.855Z,1.83
2023-01-20T06:03:05.199Z,1.88
2023-01-20T06:08:06.527Z,1.92
2023-01-20T06:13:07.988Z,1.97
2023-01-20T06:18:12.690Z,1.98
2023-01-20T06:23:14.007Z,1.94
2023-01-20T06:28:15.375Z,1.89
2023-01-20T06:33:16.699Z,1.83
2023-01-20T06:38:18.005Z,1.84
2023-01-20T06:43:19.337Z,1.86
2023-01-20T06:48:20.746Z,1.91
2023-01-20T06:53:22.169Z,1.96
2023-01-20T06:58:24.845Z,1.98
2023-01-20T07:03:26.169Z,1.92
2023-01-20T07:08:27.956Z,1.85
2023-01-20T07:13:29.269Z,1.83
2023-01-20T07:18:30.590Z,1.86
2023-01-20T07:23:36.116Z,1.86
2023-01-20T07:28:38.036Z,1.83
2023-01-20T07:33:39.422Z,1.78
2023-01-20T07:38:40.999Z,1.75
2023-01-20T07:43:43.132Z,1.77
2023-01-20T07:48:44.679Z,1.77
2023-01-20T07:53:50.830Z,1.78
2023-01-20T07:58:52.794Z,1.79
2023-01-20T08:03:54.417Z,1.80
2023-01-20T08:08:58.695Z,1.81
2023-01-20T08:14:00.198Z,1.84
2023-01-20T08:19:01.579Z,1.86
2023-01-20T08:24:05.410Z,1.88
2023-01-20T08:29:08.299Z,1.92
2023-01-20T08:34:09.860Z,1.94
2023-01-20T08:39:13.796Z,1.98
2023-01-20T08:44:15.942Z,2.04
2023-01-20T08:49:17.513Z,2.11
2023-01-20T08:54:19.394Z,2.14
2023-01-20T08:59:20.979Z,2.22
2023-01-20T09:04:22.299Z,2.27
2023-01-20T09:09:23.713Z,2.33
2023-01-20T09:14:25.177Z,2.32
2023-01-20T09:19:26.561Z,2.34
2023-01-20T09:24:28.120Z,2.33
2023-01-20T09:29:29.509Z,2.35
2023-01-20T09:34:31.000Z,2.37
2023-01-20T09:39:51.139Z,2.35
2023-01-20T09:45:25.027Z,2.37
2023-01-20T09:50:45.350Z,2.40
2023-01-20T09:55:50.315Z,2.40
2023-01-20T10:00:55.930Z,2.45
2023-01-20T10:05:59.396Z,2.50
2023-01-20T10:11:07.465Z,2.54
2023-01-20T10:16:12.346Z,2.52
2023-01-20T10:21:27.781Z,2.46
2023-01-20T10:26:41.977Z,2.43
2023-01-20T10:31:46.997Z,2.41
2023-01-20T10:36:56.028Z,2.40
2023-01-20T10:42:05.128Z,2.40
2023-01-20T10:52:40.357Z,2.50
2023-01-20T10:57:41.744Z,2.54
2023-01-20T11:02:43.601Z,2.54
2023-01-20T11:07:46.108Z,2.56
2023-01-20T11:12:51.259Z,2.60
2023-01-20T11:18:11.234Z,2.66
2023-01-20T11:23:38.941Z,2.64
2023-01-20T11:28:50.210Z,2.65
2023-01-20T11:33:55.699Z,2.61
2023-01-20T11:38:57.646Z,2.64
2023-01-20T11:43:59.880Z,2.60
2023-01-20T11:49:13.568Z,2.54
2023-01-20T11:54:16.190Z,2.51
2023-01-20T11:59:28.846Z,2.50
2023-01-20T12:04:33.177Z,2.57
2023-01-20T12:09:38.352Z,2.64
2023-01-20T12:14:42.883Z,2.68
2023-01-20T12:20:05.317Z,2.63
2023-01-20T12:25:14.908Z,2.56
2023-01-20T12:30:23.093Z,2.65
2023-01-20T12:35:28.810Z,2.83
2023-01-20T12:40:35.648Z,3.02
2023-01-20T12:45:37.090Z,3.13
2023-01-20T12:50:57.368Z,3.20
2023-01-20T12:56:07.890Z,3.30
2023-01-20T13:01:12.277Z,3.36
2023-01-20T13:06:16.714Z,3.39
2023-01-20T13:11:36.702Z,3.40
2023-01-20T13:16:47.071Z,3.38
2023-01-20T13:22:06.500Z,3.38
2023-01-20T13:27:09.904Z,3.33
2023-01-20T13:32:31.798Z,3.29
2023-01-20T13:37:37.806Z,3.28
2023-01-20T13:42:39.301Z,3.21
2023-01-20T13:47:59.088Z,3.21
2023-01-20T13:53:00.488Z,3.22
2023-01-20T13:58:02.072Z,3.22
2023-01-20T14:03:11.736Z,3.22
2023-01-20T14:08:14.050Z,3.21
2023-01-20T14:13:20.328Z,3.20
2023-01-20T14:18:22.869Z,3.17
2023-01-20T14:23:26.228Z,3.13
2023-01-20T14:28:27.852Z,3.15
2023-01-20T14:33:29.199Z,3.14
2023-01-20T14:38:30.761Z,3.08
2023-01-20T14:43:32.906Z,3.04
2023-01-20T14:48:35.194Z,3.03
2023-01-20T14:53:36.655Z,2.96
2023-01-20T14:58:44.144Z,2.91
2023-01-20T15:03:45.501Z,2.92
2023-01-20T15:09:04.443Z,2.90
2023-01-20T15:14:10.858Z,2.83
2023-01-20T15:19:22.662Z,2.77
2023-01-20T15:24:30.351Z,2.73
2023-01-20T15:29:33.606Z,2.71
2023-01-20T15:34:34.945Z,2.69
2023-01-20T15:39:36.248Z,2.67
2023-01-20T15:44:37.739Z,2.66
2023-01-20T15:49:39.248Z,2.60
2023-01-20T15:54:40.569Z,2.52
2023-01-20T15:59:45.175Z,2.43
2023-01-20T16:04:46.782Z,2.41
2023-01-20T16:09:48.438Z,2.41
2023-01-20T16:14:49.763Z,2.40
2023-01-20T16:19:51.610Z,2.37
2023-01-20T16:24:53.019Z,2.36
2023-01-20T16:29:55.827Z,2.35
2023-01-20T16:34:57.146Z,2.34
2023-01-20T16:39:58.642Z,2.36
2023-01-20T16:44:59.983Z,2.36
2023-01-20T16:50:01.412Z,2.37
2023-01-20T16:55:03.893Z,2.39
2023-01-20T17:00:06.078Z,2.42
2023-01-20T17:05:08.127Z,2.48
2023-01-20T17:10:09.893Z,2.53
2023-01-20T17:15:11.478Z,2.58
2023-01-20T17:20:12.847Z,2.58
2023-01-20T17:25:17.977Z,2.61
2023-01-20T17:30:19.557Z,2.60
2023-01-20T17:35:21.101Z,2.57
2023-01-20T17:40:22.481Z,2.53
2023-01-20T17:45:23.843Z,2.53
2023-01-20T17:50:26.556Z,2.56
2023-01-20T17:55:28.028Z,2.57
2023-01-20T18:00:29.466Z,2.53
2023-01-20T18:05:31.120Z,2.49
2023-01-20T18:10:32.502Z,2.46
2023-01-20T18:15:35.602Z,2.42
2023-01-20T18:20:37.055Z,2.43
2023-01-20T18:25:38.378Z,2.44
2023-01-20T18:30:39.934Z,2.48
2023-01-20T18:35:41.310Z,2.48
2023-01-20T18:40:42.651Z,2.49
2023-01-20T18:45:44.073Z,2.48
2023-01-20T18:50:45.521Z,2.49
2023-01-20T18:55:47.012Z,2.48
2023-01-20T19:00:48.334Z,2.46
2023-01-20T19:05:49.728Z,2.43
2023-01-20T19:10:51.058Z,2.39
2023-01-20T19:15:52.799Z,2.42
2023-01-20T19:20:54.334Z,2.40
2023-01-20T19:26:01.323Z,2.38
2023-01-20T19:31:10.375Z,2.37
2023-01-20T19:36:13.037Z,2.26
2023-01-20T19:41:16.003Z,2.17
2023-01-20T19:46:18.554Z,2.13
2023-01-20T19:51:20.104Z,2.08
2023-01-20T19:56:21.491Z,2.02
2023-01-20T20:01:24.584Z,1.99
2023-01-20T20:06:30.616Z,1.96
2023-01-20T20:11:32.516Z,1.98
2023-01-20T20:16:35.457Z,1.98
2023-01-20T20:21:36.833Z,1.99
2023-01-20T20:26:38.290Z,1.99
2023-01-20T20:31:40.690Z,1.97
2023-01-20T20:36:42.090Z,1.93
2023-01-20T20:41:43.988Z,1.93
2023-01-20T20:46:45.531Z,1.96
2023-01-20T20:51:47.526Z,1.99
2023-01-20T20:56:49.157Z,1.94
2023-01-20T21:01:51.514Z,1.91
2023-01-20T21:06:52.860Z,1.92
2023-01-20T21:11:54.533Z,1.95
2023-01-20T21:16:56.076Z,1.92
2023-01-20T21:21:57.376Z,1.95
2023-01-20T21:26:59.880Z,1.96
2023-01-20T21:32:01.205Z,1.96
2023-01-20T21:37:02.590Z,1.99
2023-01-20T21:42:05.976Z,2.03
2023-01-20T21:47:07.924Z,2.03
2023-01-20T21:52:31.941Z,2.01
2023-01-20T21:57:33.653Z,2.00
2023-01-20T22:02:35.157Z,1.96
2023-01-20T22:07:36.990Z,1.95
2023-01-20T22:12:38.336Z,1.91
2023-01-20T22:17:41.245Z,1.86
2023-01-20T22:22:42.742Z,1.84
2023-01-20T22:27:44.060Z,1.85
2023-01-20T22:32:45.489Z,1.84
2023-01-20T22:37:46.799Z,1.84
2023-01-20T22:42:48.259Z,1.81
2023-01-20T22:47:49.576Z,1.83
2023-01-20T22:52:50.890Z,1.77
2023-01-20T22:57:52.316Z,1.74
2023-01-20T23:02:53.699Z,1.73
2023-01-20T23:07:55.017Z,1.71
2023-01-20T23:12:56.344Z,1.69
2023-01-20T23:17:57.658Z,1.69
2023-01-20T23:23:00.742Z,1.69
2023-01-20T23:28:02.211Z,1.64
2023-01-20T23:33:03.933Z,1.65
2023-01-20T23:38:06.064Z,1.65
2023-01-20T23:43:07.369Z,1.66
2023-01-20T23:48:08.745Z,1.67
2023-01-20T23:53:10.048Z,1.63
2023-01-20T23:58:11.610Z,1.60
